createdAt,value
2016-12-10T03:32:47.803Z,0
2016-12-10T03:33:57.821Z,0
2016-12-10T03:35:07.538Z,0
2016-12-10T03:36:17.560Z,0
2016-12-10T03:37:27.876Z,0
2016-12-10T03:38:38.206Z,0
2016-12-10T03:39:47.905Z,0
2016-12-10T03:40:57.920Z,0
2016-12-10T03:42:07.938Z,0
2016-12-10T03:43:18.264Z,0
2016-12-10T03:44:28.581Z,0
2016-12-10T03:45:38.586Z,0
2016-12-10T03:46:48.607Z,0
2016-12-10T03:47:58.614Z,0
2016-12-10T03:49:08.634Z,0
2016-12-10T03:50:18.647Z,0
2016-12-10T03:51:28.979Z,0
2016-12-10T03:52:39.001Z,0
2016-12-10T03:53:49.323Z,0
2016-12-10T03:54:59.394Z,0
2016-12-10T03:56:09.729Z,0
2016-12-10T03:57:20.058Z,0
2016-12-10T03:58:29.761Z,0
2016-12-10T03:59:39.776Z,0
2016-12-10T04:00:50.135Z,0
2016-12-10T04:02:00.182Z,0
2016-12-10T04:03:10.510Z,0
2016-12-10T04:04:20.839Z,0
2016-12-10T04:05:30.861Z,0
2016-12-10T04:06:41.219Z,0
2016-12-10T04:07:50.610Z,0
2016-12-10T04:09:00.936Z,0
2016-12-10T04:10:10.954Z,0
2016-12-10T04:11:21.275Z,0
2016-12-10T04:12:31.601Z,0
2016-12-10T04:13:41.625Z,0
2016-12-10T04:14:51.024Z,0
2016-12-10T04:16:01.365Z,0
2016-12-10T04:17:11.389Z,0
2016-12-10T04:18:21.453Z,0
2016-12-10T04:19:31.782Z,0
2016-12-10T04:20:42.116Z,0
2016-12-10T04:21:52.137Z,0
2016-12-10T04:23:02.461Z,0
2016-12-10T04:24:12.794Z,0
2016-12-10T04:25:22.809Z,0
2016-12-10T04:26:33.147Z,0
2016-12-10T04:27:43.482Z,0
2016-12-10T04:28:53.494Z,0
2016-12-10T04:30:03.200Z,0
2016-12-10T04:31:13.226Z,0
2016-12-10T04:32:22.930Z,0
2016-12-10T04:33:33.246Z,0
2016-12-10T04:34:43.602Z,0
2016-12-10T04:35:53.625Z,0
2016-12-10T04:37:03.966Z,0
2016-12-10T04:38:13.997Z,0
2016-12-10T04:39:24.318Z,0
2016-12-10T04:40:34.342Z,0
2016-12-10T04:41:44.666Z,0
2016-12-10T04:42:54.994Z,0
2016-12-10T04:44:05.317Z,0
2016-12-10T04:45:15.627Z,0
2016-12-10T04:46:25.639Z,0
2016-12-10T04:47:35.649Z,0
2016-12-10T04:48:45.349Z,0
2016-12-10T04:49:55.050Z,0
2016-12-10T04:51:05.390Z,0
2016-12-10T04:52:15.121Z,0
2016-12-10T04:53:25.443Z,0
2016-12-10T04:54:35.145Z,0
2016-12-10T04:55:45.172Z,0
2016-12-10T04:56:54.873Z,0
2016-12-10T04:58:05.212Z,0
2016-12-10T04:59:14.598Z,0
2016-12-10T05:00:24.608Z,0
2016-12-10T05:01:34.940Z,0
2016-12-10T05:02:44.991Z,0
2016-12-10T05:03:55.310Z,0
2016-12-10T05:05:05.011Z,0
2016-12-10T05:06:15.342Z,0
2016-12-10T05:07:25.338Z,0
2016-12-10T05:08:35.369Z,0
2016-12-10T05:09:45.708Z,0
2016-12-10T05:10:55.720Z,0
2016-12-10T05:12:05.740Z,0
2016-12-10T05:13:16.061Z,0
2016-12-10T05:14:26.385Z,0
2016-12-10T05:15:36.707Z,0
2016-12-10T05:16:47.032Z,0
2016-12-10T05:17:57.087Z,0
2016-12-10T05:19:06.791Z,0
2016-12-10T05:20:16.803Z,0
2016-12-10T05:21:26.505Z,0
2016-12-10T05:22:36.842Z,0
2016-12-10T05:23:46.852Z,0
2016-12-10T05:24:57.184Z,0
2016-12-10T05:26:07.200Z,0
2016-12-10T05:27:17.522Z,0
2016-12-10T05:28:27.850Z,0
2016-12-10T05:29:38.165Z,0
2016-12-10T05:30:48.183Z,0
2016-12-10T05:31:58.192Z,0
2016-12-10T05:33:08.512Z,0
2016-12-10T05:34:18.840Z,0
2016-12-10T05:35:29.170Z,0
2016-12-10T05:36:39.497Z,0
2016-12-10T05:37:49.516Z,0
2016-12-10T05:38:59.829Z,0
2016-12-10T05:40:09.849Z,0
2016-12-10T05:41:20.183Z,0
2016-12-10T05:42:30.199Z,0
2016-12-10T05:43:40.526Z,0
2016-12-10T05:44:50.542Z,0
2016-12-10T05:46:00.241Z,0
2016-12-10T05:47:09.966Z,0
2016-12-10T05:48:20.317Z,0
2016-12-10T05:49:30.352Z,0
2016-12-10T05:50:40.050Z,0
2016-12-10T05:51:50.369Z,0
2016-12-10T05:53:00.695Z,0
2016-12-10T05:54:10.720Z,0
2016-12-10T05:55:21.033Z,0
2016-12-10T05:56:31.050Z,0
2016-12-10T05:57:41.361Z,0
2016-12-10T05:58:51.368Z,0
2016-12-10T06:00:01.699Z,0
2016-12-10T06:01:11.706Z,0
2016-12-10T06:02:21.723Z,0
2016-12-10T06:03:31.751Z,0
2016-12-10T06:04:42.066Z,0
2016-12-10T06:05:52.087Z,0
2016-12-10T06:07:02.420Z,0
2016-12-10T06:08:12.120Z,0
2016-12-10T06:09:21.818Z,0
2016-12-10T06:10:31.835Z,0
2016-12-10T06:11:42.154Z,0
2016-12-10T06:12:52.496Z,0
2016-12-10T06:14:02.503Z,0
2016-12-10T06:15:12.439Z,0
2016-12-10T06:16:22.795Z,0
2016-12-10T06:17:32.492Z,0
2016-12-10T06:18:42.521Z,0
2016-12-10T06:19:52.536Z,0
2016-12-10T06:21:02.568Z,0
2016-12-10T06:22:12.893Z,0
2016-12-10T06:23:22.942Z,0
2016-12-10T06:24:32.971Z,0
2016-12-10T06:25:42.378Z,0
2016-12-10T06:26:52.369Z,0
2016-12-10T06:28:02.054Z,0
2016-12-10T06:29:12.075Z,0
2016-12-10T06:30:22.430Z,0
2016-12-10T06:31:32.762Z,0
2016-12-10T06:32:42.770Z,0
2016-12-10T06:33:52.794Z,5
2016-12-10T06:35:03.136Z,5
2016-12-10T06:36:12.858Z,5
2016-12-10T06:37:22.560Z,5
2016-12-10T06:38:32.572Z,5
2016-12-10T06:39:42.592Z,5
2016-12-10T06:40:52.856Z,10
2016-12-10T06:42:02.931Z,10
2016-12-10T06:43:12.632Z,10
2016-12-10T06:44:22.639Z,10
2016-12-10T06:45:32.896Z,10
2016-12-10T06:46:43.232Z,15
2016-12-10T06:47:53.563Z,15
2016-12-10T06:49:03.261Z,15
2016-12-10T06:50:12.967Z,15
2016-12-10T06:51:22.984Z,20
2016-12-10T06:52:33.351Z,20
2016-12-10T06:53:43.681Z,20
2016-12-10T06:54:53.404Z,20
2016-12-10T06:56:03.746Z,25
2016-12-10T06:57:13.159Z,25
2016-12-10T06:58:23.184Z,25
2016-12-10T06:59:33.197Z,30
2016-12-10T07:00:43.218Z,30
2016-12-10T07:01:53.244Z,30
2016-12-10T07:03:02.956Z,30
2016-12-10T07:04:12.668Z,35
2016-12-10T07:05:22.724Z,35
2016-12-10T07:06:32.741Z,35
2016-12-10T07:07:42.457Z,40
2016-12-10T07:08:52.479Z,45
2016-12-10T07:10:02.815Z,45
2016-12-10T07:11:12.832Z,45
2016-12-10T07:12:22.859Z,50
2016-12-10T07:13:32.885Z,50
2016-12-10T07:14:42.894Z,55
2016-12-10T07:15:52.929Z,50
2016-12-10T07:17:02.951Z,50
2016-12-10T07:18:12.663Z,50
2016-12-10T07:19:22.687Z,55
2016-12-10T07:20:32.758Z,55
2016-12-10T07:21:43.094Z,60
2016-12-10T07:22:52.829Z,60
2016-12-10T07:24:02.222Z,65
2016-12-10T07:25:12.569Z,65
2016-12-10T07:26:21.966Z,70
2016-12-10T07:27:31.682Z,70
2016-12-10T07:28:42.016Z,70
2016-12-10T07:29:52.045Z,75
2016-12-10T07:31:01.752Z,75
2016-12-10T07:32:11.464Z,80
2016-12-10T07:33:21.787Z,80
2016-12-10T07:34:32.138Z,80
2016-12-10T07:35:42.469Z,80
2016-12-10T07:36:52.186Z,80
2016-12-10T07:38:02.538Z,80
2016-12-10T07:39:12.556Z,85
2016-12-10T07:40:21.956Z,85
2016-12-10T07:41:31.993Z,85
2016-12-10T07:42:42.038Z,85
2016-12-10T07:43:52.048Z,85
2016-12-10T07:45:02.083Z,85
2016-12-10T07:46:12.104Z,85
2016-12-10T07:47:22.147Z,85
2016-12-10T07:48:32.502Z,85
2016-12-10T07:49:42.860Z,85
2016-12-10T07:50:52.921Z,85
2016-12-10T07:52:02.958Z,80
2016-12-10T07:53:12.989Z,80
2016-12-10T07:54:23.038Z,80
2016-12-10T07:55:33.056Z,85
2016-12-10T07:56:43.384Z,85
2016-12-10T07:57:53.739Z,80
2016-12-10T07:59:04.067Z,80
2016-12-10T08:00:14.413Z,80
2016-12-10T08:01:24.439Z,80
2016-12-10T08:02:34.772Z,80
2016-12-10T08:03:44.493Z,80
2016-12-10T08:04:54.815Z,85
2016-12-10T08:06:05.172Z,85
2016-12-10T08:07:15.502Z,85
2016-12-10T08:08:25.520Z,90
2016-12-10T08:09:35.546Z,95
2016-12-10T08:10:45.261Z,100
2016-12-10T08:11:55.272Z,100
2016-12-10T08:13:05.611Z,100
2016-12-10T08:14:15.333Z,100
2016-12-10T08:15:25.343Z,100
2016-12-10T08:16:35.371Z,105
2016-12-10T08:17:45.398Z,110
2016-12-10T08:18:55.724Z,110
2016-12-10T08:20:06.072Z,115
2016-12-10T08:21:15.803Z,105
2016-12-10T08:22:26.155Z,105
2016-12-10T08:23:35.566Z,105
2016-12-10T08:24:45.586Z,110
2016-12-10T08:25:55.941Z,110
2016-12-10T08:27:05.977Z,115
2016-12-10T08:28:16.322Z,120
2016-12-10T08:29:26.349Z,115
2016-12-10T08:30:36.395Z,120
2016-12-10T08:31:46.428Z,125
2016-12-10T08:32:56.764Z,130
2016-12-10T08:34:07.102Z,130
2016-12-10T08:35:17.445Z,135
2016-12-10T08:36:27.779Z,135
2016-12-10T08:37:38.111Z,135
2016-12-10T08:38:47.828Z,140
2016-12-10T08:39:57.836Z,140
2016-12-10T08:41:07.856Z,135
2016-12-10T08:42:18.198Z,140
2016-12-10T08:43:28.214Z,145
2016-12-10T08:44:38.562Z,135
2016-12-10T08:45:48.905Z,140
2016-12-10T08:46:58.949Z,140
2016-12-10T08:48:08.690Z,140
2016-12-10T08:49:18.735Z,135
2016-12-10T08:50:29.087Z,135
2016-12-10T08:51:39.207Z,135
2016-12-10T08:52:49.548Z,130
2016-12-10T08:53:59.564Z,130
2016-12-10T08:55:09.601Z,130
2016-12-10T08:56:19.957Z,135
2016-12-10T08:57:30.315Z,125
2016-12-10T08:58:40.045Z,125
2016-12-10T08:59:50.071Z,120
2016-12-10T09:01:00.419Z,120
2016-12-10T09:02:10.462Z,120
2016-12-10T09:03:20.817Z,120
2016-12-10T09:04:31.162Z,130
2016-12-10T09:05:41.196Z,130
2016-12-10T09:06:51.541Z,130
2016-12-10T09:08:01.594Z,135
2016-12-10T09:09:11.922Z,135
2016-12-10T09:10:21.647Z,140
2016-12-10T09:11:31.664Z,135
2016-12-10T09:12:42.011Z,140
2016-12-10T09:13:52.360Z,145
2016-12-10T09:15:02.688Z,150
2016-12-10T09:16:12.395Z,155
2016-12-10T09:17:22.771Z,165
2016-12-10T09:18:32.478Z,160
2016-12-10T09:19:42.201Z,160
2016-12-10T09:20:52.536Z,160
2016-12-10T09:22:02.273Z,160
2016-12-10T09:23:12.619Z,155
2016-12-10T09:24:22.981Z,160
2016-12-10T09:25:33.365Z,185
2016-12-10T09:26:43.395Z,190
2016-12-10T09:27:53.431Z,180
2016-12-10T09:29:03.783Z,175
2016-12-10T09:30:13.819Z,160
2016-12-10T09:31:24.166Z,170
2016-12-10T09:32:34.201Z,170
2016-12-10T09:33:44.535Z,160
2016-12-10T09:34:54.563Z,170
2016-12-10T09:36:04.594Z,175
2016-12-10T09:37:14.924Z,170
2016-12-10T09:38:25.261Z,180
2016-12-10T09:39:35.287Z,180
2016-12-10T09:40:45.644Z,185
2016-12-10T09:41:55.695Z,170
2016-12-10T09:43:06.043Z,200
2016-12-10T09:44:16.376Z,230
2016-12-10T09:45:26.410Z,245
2016-12-10T09:46:36.754Z,280
2016-12-10T09:47:46.770Z,265
2016-12-10T09:48:57.130Z,170
2016-12-10T09:50:07.469Z,165
2016-12-10T09:51:17.504Z,170
2016-12-10T09:52:27.567Z,180
2016-12-10T09:53:37.932Z,175
2016-12-10T09:54:48.269Z,175
2016-12-10T09:55:58.282Z,175
2016-12-10T09:57:08.643Z,170
2016-12-10T09:58:18.660Z,175
2016-12-10T09:59:28.912Z,175
2016-12-10T10:00:38.961Z,170
2016-12-10T10:01:49.295Z,165
2016-12-10T10:02:59.328Z,175
2016-12-10T10:04:09.350Z,185
2016-12-10T10:05:19.065Z,175
2016-12-10T10:06:29.402Z,175
2016-12-10T10:07:39.749Z,170
2016-12-10T10:08:50.087Z,160
2016-12-10T10:10:00.127Z,160
2016-12-10T10:11:10.160Z,150
2016-12-10T10:12:20.501Z,155
2016-12-10T10:13:30.834Z,165
2016-12-10T10:14:40.545Z,190
2016-12-10T10:15:50.597Z,185
2016-12-10T10:17:00.980Z,175
2016-12-10T10:18:11.026Z,170
2016-12-10T10:19:21.352Z,175
2016-12-10T10:20:31.379Z,160
2016-12-10T10:21:41.720Z,160
2016-12-10T10:22:51.442Z,160
2016-12-10T10:24:00.854Z,160
2016-12-10T10:25:11.205Z,160
2016-12-10T10:26:20.913Z,165
2016-12-10T10:27:31.250Z,160
2016-12-10T10:28:41.615Z,160
2016-12-10T10:29:51.944Z,160
2016-12-10T10:31:02.270Z,160
2016-12-10T10:32:12.608Z,155
2016-12-10T10:33:22.948Z,145
2016-12-10T10:34:33.296Z,140
2016-12-10T10:35:43.039Z,140
2016-12-10T10:36:53.608Z,145
2016-12-10T10:38:03.640Z,150
2016-12-10T10:39:13.359Z,150
2016-12-10T10:40:23.383Z,150
2016-12-10T10:41:33.735Z,150
2016-12-10T10:42:44.082Z,150
2016-12-10T10:43:54.416Z,155
2016-12-10T10:45:04.755Z,160
2016-12-10T10:46:14.809Z,165
2016-12-10T10:47:24.884Z,155
2016-12-10T10:48:35.231Z,155
2016-12-10T10:49:45.584Z,155
2016-12-10T10:50:55.600Z,165
2016-12-10T10:52:05.932Z,185
2016-12-10T10:53:15.640Z,190
2016-12-10T10:54:25.678Z,200
2016-12-10T10:55:35.396Z,210
2016-12-10T10:56:45.734Z,195
2016-12-10T10:57:55.762Z,190
2016-12-10T10:59:05.846Z,195
2016-12-10T11:00:15.868Z,185
2016-12-10T11:01:25.911Z,175
2016-12-10T11:02:35.945Z,170
2016-12-10T11:03:45.347Z,185
2016-12-10T11:04:55.107Z,165
2016-12-10T11:06:05.449Z,170
2016-12-10T11:07:15.487Z,170
2016-12-10T11:08:25.191Z,185
2016-12-10T11:09:35.236Z,190
2016-12-10T11:10:45.333Z,195
2016-12-10T11:11:55.359Z,195
2016-12-10T11:13:05.395Z,220
2016-12-10T11:14:15.404Z,225
2016-12-10T11:15:25.730Z,225
2016-12-10T11:16:36.077Z,230
2016-12-10T11:17:46.098Z,220
2016-12-10T11:18:56.444Z,215
2016-12-10T11:20:06.791Z,195
2016-12-10T11:21:16.843Z,165
2016-12-10T11:22:27.190Z,195
2016-12-10T11:23:37.521Z,200
2016-12-10T11:24:47.849Z,205
2016-12-10T11:25:58.180Z,200
2016-12-10T11:27:08.506Z,195
2016-12-10T11:28:18.864Z,190
2016-12-10T11:29:28.909Z,190
2016-12-10T11:30:38.962Z,185
2016-12-10T11:31:49.313Z,200
2016-12-10T11:32:59.660Z,200
2016-12-10T11:34:10.005Z,200
2016-12-10T11:35:19.720Z,195
2016-12-10T11:36:30.046Z,195
2016-12-10T11:37:40.093Z,195
2016-12-10T11:38:50.124Z,190
2016-12-10T11:40:00.167Z,200
2016-12-10T11:41:09.899Z,180
2016-12-10T11:42:19.629Z,175
2016-12-10T11:43:29.958Z,175
2016-12-10T11:44:39.684Z,175
2016-12-10T11:45:49.730Z,185
2016-12-10T11:46:59.780Z,185
2016-12-10T11:48:09.815Z,175
2016-12-10T11:49:20.148Z,175
2016-12-10T11:50:30.502Z,175
2016-12-10T11:51:40.209Z,175
2016-12-10T11:52:49.922Z,185
2016-12-10T11:54:00.268Z,185
2016-12-10T11:55:10.626Z,185
2016-12-10T11:56:20.653Z,180
2016-12-10T11:57:31.009Z,175
2016-12-10T11:58:40.750Z,175
2016-12-10T11:59:51.151Z,170
2016-12-10T12:01:01.724Z,175
2016-12-10T12:02:11.737Z,175
2016-12-10T12:03:21.774Z,165
2016-12-10T12:04:32.104Z,165
2016-12-10T12:05:42.148Z,170
2016-12-10T12:06:52.512Z,165
2016-12-10T12:08:02.867Z,165
2016-12-10T12:09:12.901Z,175
2016-12-10T12:10:23.234Z,160
2016-12-10T12:11:33.260Z,180
2016-12-10T12:12:43.602Z,210
2016-12-10T12:13:53.954Z,270
2016-12-10T12:15:03.984Z,330
2016-12-10T12:16:14.036Z,415
2016-12-10T12:17:24.067Z,365
2016-12-10T12:18:34.107Z,290
2016-12-10T12:19:44.445Z,280
2016-12-10T12:20:54.486Z,265
2016-12-10T12:22:04.813Z,255
2016-12-10T12:23:14.874Z,255
2016-12-10T12:24:25.220Z,215
2016-12-10T12:25:35.557Z,210
2016-12-10T12:26:45.604Z,210
2016-12-10T12:27:55.050Z,205
2016-12-10T12:29:05.099Z,190
2016-12-10T12:30:15.447Z,255
2016-12-10T12:31:25.772Z,300
2016-12-10T12:32:35.804Z,310
2016-12-10T12:33:46.188Z,270
2016-12-10T12:34:55.910Z,240
2016-12-10T12:36:06.488Z,215
2016-12-10T12:37:16.200Z,165
2016-12-10T12:38:26.233Z,165
2016-12-10T12:39:35.654Z,170
2016-12-10T12:40:45.739Z,160
2016-12-10T12:41:56.079Z,155
2016-12-10T12:43:05.786Z,165
2016-12-10T12:44:16.127Z,160
2016-12-10T12:45:25.843Z,155
2016-12-10T12:46:36.190Z,155
2016-12-10T12:47:46.224Z,160
2016-12-10T12:48:56.252Z,165
2016-12-10T12:50:06.310Z,165
2016-12-10T12:51:16.643Z,155
2016-12-10T12:52:26.373Z,150
2016-12-10T12:53:36.711Z,140
2016-12-10T12:54:47.058Z,140
2016-12-10T12:55:57.086Z,135
2016-12-10T12:57:07.098Z,130
2016-12-10T12:58:17.448Z,125
2016-12-10T12:59:27.489Z,125
2016-12-10T13:00:37.548Z,125
2016-12-10T13:01:47.282Z,120
2016-12-10T13:02:57.306Z,115
2016-12-10T13:04:07.347Z,120
2016-12-10T13:05:17.058Z,120
2016-12-10T13:06:26.766Z,125
2016-12-10T13:07:36.797Z,115
2016-12-10T13:08:47.138Z,110
2016-12-10T13:09:57.167Z,105
2016-12-10T13:11:06.882Z,110
2016-12-10T13:12:16.933Z,105
2016-12-10T13:13:26.958Z,95
2016-12-10T13:14:37.297Z,90
2016-12-10T13:15:47.321Z,90
2016-12-10T13:16:57.661Z,90
2016-12-10T13:18:07.697Z,90
2016-12-10T13:19:17.425Z,85
2016-12-10T13:20:27.762Z,85
2016-12-10T13:21:37.799Z,85
2016-12-10T13:22:47.827Z,80
2016-12-10T13:23:58.181Z,80
2016-12-10T13:25:08.208Z,80
2016-12-10T13:26:18.224Z,75
2016-12-10T13:27:27.941Z,75
2016-12-10T13:28:37.979Z,75
2016-12-10T13:29:47.692Z,80
2016-12-10T13:30:58.047Z,80
2016-12-10T13:32:08.388Z,75
2016-12-10T13:33:18.130Z,75
2016-12-10T13:34:28.157Z,75
2016-12-10T13:35:38.495Z,75
2016-12-10T13:36:48.835Z,75
2016-12-10T13:37:58.862Z,75
2016-12-10T13:39:09.203Z,80
2016-12-10T13:40:19.225Z,80
2016-12-10T13:41:29.554Z,90
2016-12-10T13:42:39.581Z,90
2016-12-10T13:43:49.926Z,85
2016-12-10T13:45:00.280Z,75
2016-12-10T13:46:10.314Z,75
2016-12-10T13:47:20.036Z,75
2016-12-10T13:48:30.388Z,75
2016-12-10T13:49:40.963Z,80
2016-12-10T13:50:50.997Z,75
2016-12-10T13:52:01.011Z,80
2016-12-10T13:53:11.346Z,75
2016-12-10T13:54:21.378Z,75
2016-12-10T13:55:31.748Z,70
2016-12-10T13:56:42.098Z,70
2016-12-10T13:57:52.139Z,70
2016-12-10T13:59:02.491Z,70
2016-12-10T14:00:12.552Z,70
2016-12-10T14:01:22.937Z,75
2016-12-10T14:02:33.125Z,75
2016-12-10T14:03:43.465Z,75
2016-12-10T14:04:53.503Z,70
2016-12-10T14:06:03.550Z,70
2016-12-10T14:07:13.920Z,65
2016-12-10T14:08:23.985Z,65
2016-12-10T14:09:34.339Z,70
2016-12-10T14:10:44.680Z,70
2016-12-10T14:11:55.049Z,70
2016-12-10T14:13:05.417Z,70
2016-12-10T14:14:15.475Z,65
2016-12-10T14:15:25.208Z,60
2016-12-10T14:16:35.282Z,60
2016-12-10T14:17:45.336Z,55
2016-12-10T14:18:55.450Z,50
2016-12-10T14:20:05.515Z,45
2016-12-10T14:21:15.586Z,45
2016-12-10T14:22:25.631Z,45
2016-12-10T14:23:35.747Z,45
2016-12-10T14:24:45.503Z,45
2016-12-10T14:25:55.890Z,45
2016-12-10T14:27:05.962Z,40
2016-12-10T14:28:16.370Z,40
2016-12-10T14:29:26.138Z,35
2016-12-10T14:30:36.212Z,35
2016-12-10T14:31:46.623Z,30
2016-12-10T14:32:56.669Z,30
2016-12-10T14:34:07.051Z,30
2016-12-10T14:35:16.886Z,30
2016-12-10T14:36:26.937Z,25
2016-12-10T14:37:37.074Z,25
2016-12-10T14:38:47.475Z,25
2016-12-10T14:39:57.262Z,20
2016-12-10T14:41:07.004Z,20
2016-12-10T14:42:17.428Z,20
2016-12-10T14:43:27.541Z,20
2016-12-10T14:44:37.942Z,15
2016-12-10T14:45:48.326Z,15
2016-12-10T14:46:58.710Z,15
2016-12-10T14:48:09.095Z,15
2016-12-10T14:49:19.182Z,15
2016-12-10T14:50:29.211Z,10
2016-12-10T14:51:39.714Z,10
2016-12-10T14:52:49.741Z,10
2016-12-10T14:53:59.823Z,10
2016-12-10T14:55:09.859Z,10
2016-12-10T14:56:20.238Z,5
2016-12-10T14:57:29.971Z,5
2016-12-10T14:58:40.357Z,5
2016-12-10T14:59:50.452Z,5
2016-12-10T15:01:00.482Z,5
2016-12-10T15:02:10.559Z,5
2016-12-10T15:03:20.313Z,5
2016-12-10T15:04:30.394Z,5
2016-12-10T15:05:40.762Z,5
2016-12-10T15:06:50.821Z,0
2016-12-10T15:08:01.176Z,0
2016-12-10T15:09:11.594Z,0
2016-12-10T15:10:21.640Z,0
2016-12-10T15:11:31.990Z,0
2016-12-10T15:12:42.385Z,0
2016-12-10T15:13:52.751Z,0
2016-12-10T15:15:02.794Z,0
2016-12-10T15:16:12.854Z,0
2016-12-10T15:17:23.225Z,0
2016-12-10T15:18:33.265Z,0
2016-12-10T15:19:43.607Z,0
2016-12-10T15:20:53.979Z,0
2016-12-10T15:22:04.030Z,0
2016-12-10T15:23:13.773Z,0
2016-12-10T15:24:24.139Z,0
2016-12-10T15:25:33.875Z,0
2016-12-10T15:26:44.253Z,0
2016-12-10T15:27:54.280Z,0
2016-12-10T15:29:03.987Z,0
2016-12-10T15:30:14.333Z,0
2016-12-10T15:31:24.063Z,0
2016-12-10T15:32:34.422Z,0
2016-12-10T15:33:44.467Z,0
2016-12-10T15:34:54.825Z,0
2016-12-10T15:36:05.191Z,0
2016-12-10T15:37:15.543Z,0
2016-12-10T15:38:25.597Z,0
2016-12-10T15:39:35.939Z,0
2016-12-10T15:40:45.977Z,0
2016-12-10T15:41:56.000Z,0
2016-12-10T15:43:06.373Z,0
2016-12-10T15:44:16.710Z,0
2016-12-10T15:45:26.769Z,0
2016-12-10T15:46:36.790Z,0
2016-12-10T15:47:47.202Z,0
2016-12-10T15:48:56.985Z,0
2016-12-10T15:50:07.021Z,0
2016-12-10T15:51:17.044Z,0
2016-12-10T15:52:27.102Z,0
2016-12-10T15:53:37.452Z,0
2016-12-10T15:54:47.905Z,0
2016-12-10T15:55:57.952Z,0
2016-12-10T15:57:08.351Z,0
2016-12-10T15:58:18.708Z,0
2016-12-10T15:59:28.766Z,0
2016-12-10T16:00:39.162Z,0
2016-12-10T16:01:48.567Z,0
2016-12-10T16:02:58.603Z,0
2016-12-10T16:04:08.683Z,0
2016-12-10T16:05:18.726Z,0
2016-12-10T16:06:29.101Z,0
2016-12-10T16:07:39.438Z,0
2016-12-10T16:08:49.808Z,0
2016-12-10T16:09:59.844Z,0
2016-12-10T16:11:10.427Z,0
2016-12-10T16:12:20.183Z,0
2016-12-10T16:13:30.212Z,0
2016-12-10T16:14:40.571Z,0
2016-12-10T16:15:50.923Z,0
2016-12-10T16:17:01.030Z,0
2016-12-10T16:18:11.061Z,0
2016-12-10T16:19:20.457Z,0
2016-12-10T16:20:30.571Z,0
2016-12-10T16:21:40.599Z,0
2016-12-10T16:22:50.046Z,0
2016-12-10T16:23:59.817Z,0
2016-12-10T16:25:09.913Z,0
2016-12-10T16:26:20.284Z,0
2016-12-10T16:27:30.306Z,0
2016-12-10T16:28:40.649Z,0
2016-12-10T16:29:50.374Z,0
2016-12-10T16:31:00.740Z,0
2016-12-10T16:32:10.509Z,0
2016-12-10T16:33:20.939Z,0
2016-12-10T16:34:30.700Z,0
2016-12-10T16:35:40.465Z,0
2016-12-10T16:36:50.817Z,0
2016-12-10T16:38:00.857Z,0
2016-12-10T16:39:10.910Z,0
2016-12-10T16:40:21.259Z,0
2016-12-10T16:41:31.314Z,0
2016-12-10T16:42:41.394Z,0
2016-12-10T16:43:51.467Z,0
2016-12-10T16:45:01.544Z,0
2016-12-10T16:46:11.883Z,0
2016-12-10T16:47:21.911Z,0
2016-12-10T16:48:32.257Z,0
2016-12-10T16:49:42.628Z,0
2016-12-10T16:50:52.995Z,0
2016-12-10T16:52:03.330Z,0
2016-12-10T16:53:13.662Z,0
2016-12-10T16:54:24.070Z,0
2016-12-10T16:55:34.426Z,0
2016-12-10T16:56:44.486Z,0
2016-12-10T16:57:54.835Z,0
2016-12-10T16:59:04.872Z,0
2016-12-10T17:00:14.590Z,0
2016-12-10T17:01:24.634Z,0
2016-12-10T17:02:34.666Z,0
2016-12-10T17:03:44.684Z,0
2016-12-10T17:04:54.742Z,0
2016-12-10T17:06:04.473Z,0
2016-12-10T17:07:14.506Z,0
2016-12-10T17:08:24.855Z,0
2016-12-10T17:09:35.219Z,0
2016-12-10T17:10:45.559Z,0
2016-12-10T17:11:55.634Z,0
2016-12-10T17:13:05.053Z,0
2016-12-10T17:14:15.108Z,0
2016-12-10T17:15:24.846Z,0
2016-12-10T17:16:34.877Z,0
2016-12-10T17:17:44.616Z,0
2016-12-10T17:18:54.987Z,0
2016-12-10T17:20:05.352Z,0
2016-12-10T17:21:15.414Z,0
2016-12-10T17:22:25.459Z,0
2016-12-10T17:23:35.827Z,0
2016-12-10T17:24:45.856Z,0
2016-12-10T17:25:55.889Z,0
2016-12-10T17:27:06.253Z,0
2016-12-10T17:28:15.349Z,0
2016-12-10T17:29:25.401Z,0
2016-12-10T17:30:35.798Z,0
2016-12-10T17:31:45.528Z,0
2016-12-10T17:32:55.884Z,0
2016-12-10T17:34:05.939Z,0
2016-12-10T17:35:16.275Z,0
2016-12-10T17:36:26.631Z,0
2016-12-10T17:37:36.995Z,0
2016-12-10T17:38:47.359Z,0
2016-12-10T17:39:57.703Z,0
2016-12-10T17:41:08.066Z,0
2016-12-10T17:42:18.100Z,0
2016-12-10T17:43:28.125Z,0
2016-12-10T17:44:38.468Z,0
2016-12-10T17:45:48.816Z,0
2016-12-10T17:46:58.558Z,0
2016-12-10T17:48:08.886Z,0
2016-12-10T17:49:19.254Z,0
2016-12-10T17:50:29.287Z,0
2016-12-10T17:51:39.328Z,0
2016-12-10T17:52:49.378Z,0
2016-12-10T17:53:59.720Z,0
2016-12-10T17:55:10.073Z,0
2016-12-10T17:56:20.135Z,0
2016-12-10T17:57:30.167Z,0
2016-12-10T17:58:40.514Z,0
2016-12-10T17:59:50.541Z,0
2016-12-10T18:01:00.884Z,0
2016-12-10T18:02:11.244Z,0
2016-12-10T18:03:21.585Z,0
2016-12-10T18:04:31.306Z,0
2016-12-10T18:05:41.648Z,0
2016-12-10T18:06:51.992Z,0
2016-12-10T18:08:01.705Z,0
2016-12-10T18:09:11.749Z,0
2016-12-10T18:10:21.510Z,0
2016-12-10T18:11:31.569Z,0
2016-12-10T18:12:41.590Z,0
2016-12-10T18:13:51.876Z,0
2016-12-10T18:15:01.918Z,0
2016-12-10T18:16:12.254Z,0
2016-12-10T18:17:22.326Z,0
2016-12-10T18:18:32.359Z,0
2016-12-10T18:19:42.121Z,0
2016-12-10T18:20:52.182Z,0
2016-12-10T18:22:02.533Z,0
2016-12-10T18:23:12.882Z,0
2016-12-10T18:24:23.251Z,0
2016-12-10T18:25:33.601Z,0
2016-12-10T18:26:44.003Z,0
2016-12-10T18:27:54.373Z,0
2016-12-10T18:29:04.400Z,0
2016-12-10T18:30:14.774Z,0
2016-12-10T18:31:24.998Z,0
2016-12-10T18:32:35.380Z,0
2016-12-10T18:33:45.711Z,0
2016-12-10T18:34:56.063Z,0
2016-12-10T18:36:06.212Z,0
2016-12-10T18:37:16.344Z,0
2016-12-10T18:38:26.691Z,0
2016-12-10T18:39:36.739Z,0
2016-12-10T18:40:47.094Z,0
2016-12-10T18:41:56.833Z,0
2016-12-10T18:43:07.187Z,0
2016-12-10T18:44:17.555Z,0
2016-12-10T18:45:27.598Z,0
2016-12-10T18:46:37.948Z,0
2016-12-10T18:47:47.673Z,0
2016-12-10T18:48:58.023Z,0
2016-12-10T18:50:08.379Z,0
2016-12-10T18:51:18.722Z,0
2016-12-10T18:52:29.074Z,0
2016-12-10T18:53:39.110Z,0
2016-12-10T18:54:49.145Z,0
2016-12-10T18:55:59.494Z,0
2016-12-10T18:57:09.532Z,0
2016-12-10T18:58:19.586Z,0
2016-12-10T18:59:29.633Z,0
2016-12-10T19:00:39.672Z,0
2016-12-10T19:01:50.021Z,0
2016-12-10T19:03:00.365Z,0
2016-12-10T19:04:10.434Z,0
2016-12-10T19:05:20.802Z,0
2016-12-10T19:06:31.157Z,0
2016-12-10T19:07:40.874Z,0
2016-12-10T19:08:51.242Z,0
2016-12-10T19:10:01.606Z,0
2016-12-10T19:11:11.645Z,0
2016-12-10T19:12:22.001Z,0
2016-12-10T19:13:32.360Z,0
2016-12-10T19:14:42.720Z,0
2016-12-10T19:15:53.076Z,0
2016-12-10T19:17:03.415Z,0
2016-12-10T19:18:13.700Z,0
2016-12-10T19:19:24.070Z,0
2016-12-10T19:20:34.108Z,0
2016-12-10T19:21:44.161Z,0
2016-12-10T19:22:53.883Z,0
2016-12-10T19:24:03.913Z,0
2016-12-10T19:25:14.178Z,0
2016-12-10T19:26:23.955Z,0
2016-12-10T19:27:34.056Z,0
2016-12-10T19:28:44.105Z,0
2016-12-10T19:29:54.178Z,0
2016-12-10T19:31:04.521Z,0
2016-12-10T19:32:14.903Z,0
2016-12-10T19:33:25.251Z,0
2016-12-10T19:34:35.295Z,0
2016-12-10T19:35:44.744Z,0
2016-12-10T19:36:55.110Z,0
2016-12-10T19:38:05.203Z,0
2016-12-10T19:39:14.644Z,0
2016-12-10T19:40:24.683Z,0
2016-12-10T19:41:34.720Z,0
2016-12-10T19:42:45.065Z,0
2016-12-10T19:43:55.094Z,0
2016-12-10T19:45:05.464Z,0
2016-12-10T19:46:15.523Z,0
2016-12-10T19:47:25.567Z,0
2016-12-10T19:48:35.596Z,0
2016-12-10T19:49:45.960Z,0
2016-12-10T19:50:55.700Z,0
2016-12-10T19:52:06.047Z,0
2016-12-10T19:53:16.412Z,0
2016-12-10T19:54:26.751Z,0
2016-12-10T19:55:36.479Z,0
2016-12-10T19:56:46.835Z,0
2016-12-10T19:57:56.878Z,0
2016-12-10T19:59:07.238Z,0
2016-12-10T20:00:17.284Z,0
2016-12-10T20:01:27.017Z,0
2016-12-10T20:02:37.050Z,0
2016-12-10T20:03:47.083Z,0
2016-12-10T20:04:57.123Z,0
2016-12-10T20:06:06.869Z,0
2016-12-10T20:07:17.223Z,0
2016-12-10T20:08:27.266Z,0
2016-12-10T20:09:37.325Z,0
2016-12-10T20:10:47.683Z,0
2016-12-10T20:11:58.033Z,0
2016-12-10T20:13:08.395Z,0
2016-12-10T20:14:18.117Z,0
2016-12-10T20:15:28.465Z,0
2016-12-10T20:16:38.541Z,0
2016-12-10T20:17:48.886Z,0
2016-12-10T20:18:58.949Z,0
2016-12-10T20:20:09.290Z,0